Time;durP1;ratioP1;P1;durP2;ratioP2;P2;SDS_P1;SDS_P2;PMS_P1;PMS_P2;Temp;Humidity;BMP_temperature;BMP_pressure;BME280_temperature;BME280_humidity;BME280_pressure;Samples;Min_cycle;Max_cycle;Signal;HPM_P1;HPM_P2
2021/04/17 00:04:02;;;;;;;4.97;1.83;;;4.70;99.90;;;;;;12353514;28;20127;-43
2021/04/17 00:10:05;;;;;;;3.97;2.00;;;4.50;99.90;;;;;;12360014;28;20548;-42
2021/04/17 00:16:06;;;;;;;3.63;1.80;;;4.10;99.90;;;;;;12367193;28;20050;-43
2021/04/17 00:22:08;;;;;;;5.25;1.98;;;4.20;99.90;;;;;;12354541;28;20049;-42
2021/04/17 00:28:09;;;;;;;4.88;2.05;;;4.30;99.90;;;;;;12358095;28;20505;-42
2021/04/17 00:34:11;;;;;;;4.65;1.95;;;4.40;99.90;;;;;;12362580;28;20057;-42
2021/04/17 00:40:13;;;;;;;3.90;1.77;;;4.30;99.90;;;;;;12359488;28;20038;-42
2021/04/17 00:46:14;;;;;;;6.72;2.17;;;4.20;99.90;;;;;;12357543;28;20426;-44
2021/04/17 00:52:16;;;;;;;5.03;1.73;;;4.20;99.90;;;;;;12363384;28;20046;-42
2021/04/17 00:58:17;;;;;;;4.70;1.92;;;4.20;99.90;;;;;;12369935;28;20050;-42
2021/04/17 01:04:39;;;;;;;4.75;1.83;;;4.00;99.90;;;;;;12359084;28;20121;-42
2021/04/17 01:10:45;;;;;;;3.65;1.90;;;3.90;99.90;;;;;;12362947;28;20115;-42
2021/04/17 01:16:47;;;;;;;6.97;2.00;;;3.80;99.90;;;;;;12364660;28;20038;-44
2021/04/17 01:23:07;;;;;;;7.53;2.13;;;3.70;99.90;;;;;;12360162;28;20051;-43
2021/04/17 01:29:09;;;;;;;5.07;1.90;;;3.60;99.90;;;;;;12366614;28;20061;-42
2021/04/17 01:35:14;;;;;;;6.13;2.40;;;3.60;99.90;;;;;;12368256;28;20077;-43
2021/04/17 01:41:22;;;;;;;6.10;2.30;;;3.50;99.90;;;;;;12359779;28;20050;-42
2021/04/17 01:47:23;;;;;;;5.68;2.30;;;3.50;99.90;;;;;;12359738;28;20053;-43
2021/04/17 01:53:30;;;;;;;6.05;2.20;;;3.40;99.90;;;;;;12364675;28;20054;-43
2021/04/17 01:59:34;;;;;;;5.85;2.20;;;3.40;99.90;;;;;;12354680;28;20050;-42
2021/04/17 02:05:35;;;;;;;5.20;2.10;;;3.40;99.90;;;;;;12364325;28;20123;-42
2021/04/17 02:11:37;;;;;;;5.75;2.17;;;3.40;99.90;;;;;;12357296;28;20073;-42
2021/04/17 02:17:49;;;;;;;5.40;2.22;;;3.40;99.90;;;;;;12372724;28;20505;-43
2021/04/17 02:23:51;;;;;;;4.70;2.60;;;3.40;99.90;;;;;;12369983;28;20133;-42
2021/04/17 02:29:54;;;;;;;4.75;2.40;;;3.40;99.90;;;;;;12373497;28;20439;-43
2021/04/17 02:35:56;;;;;;;4.88;2.30;;;3.20;99.90;;;;;;12373030;28;20085;-43
2021/04/17 02:41:57;;;;;;;5.38;2.60;;;2.80;99.90;;;;;;12373450;28;20054;-42
2021/04/17 02:47:59;;;;;;;6.15;2.60;;;2.80;99.90;;;;;;12368570;28;20096;-44
2021/04/17 02:54:01;;;;;;;5.88;2.53;;;2.70;99.90;;;;;;12369037;28;20141;-42
2021/04/17 03:00:05;;;;;;;5.78;2.50;;;2.80;99.90;;;;;;12367225;28;20062;-42
2021/04/17 03:06:07;;;;;;;5.85;2.60;;;2.70;99.90;;;;;;12374044;28;20124;-42
2021/04/17 03:12:09;;;;;;;6.13;3.08;;;2.60;99.90;;;;;;12371227;28;20181;-43
2021/04/17 03:18:11;;;;;;;5.57;2.40;;;2.60;99.90;;;;;;12369701;28;20414;-43
2021/04/17 03:24:12;;;;;;;9.05;3.03;;;2.50;99.90;;;;;;12369705;28;20058;-44
2021/04/17 03:30:18;;;;;;;6.07;2.60;;;2.40;99.90;;;;;;12368977;28;20141;-44
2021/04/17 03:36:20;;;;;;;6.55;3.00;;;2.40;99.90;;;;;;12372458;28;20529;-42
2021/04/17 03:42:21;;;;;;;7.90;3.00;;;2.40;99.90;;;;;;12371441;28;20466;-43
2021/04/17 03:48:23;;;;;;;5.57;2.90;;;2.40;99.90;;;;;;12371416;28;21049;-43
2021/04/17 03:54:24;;;;;;;9.32;2.67;;;2.40;99.90;;;;;;12371283;28;20791;-42
2021/04/17 04:00:25;;;;;;;6.43;3.05;;;2.50;99.90;;;;;;12371273;28;20093;-42
2021/04/17 04:06:27;;;;;;;5.82;3.20;;;2.50;99.90;;;;;;12373817;28;20092;-42
2021/04/17 04:12:28;;;;;;;6.03;3.10;;;2.40;99.90;;;;;;12369846;28;20132;-43
2021/04/17 04:18:29;;;;;;;7.50;3.15;;;2.40;99.90;;;;;;12364170;28;20122;-42
2021/04/17 04:24:32;;;;;;;6.72;2.90;;;2.30;99.90;;;;;;12365698;28;20046;-43
2021/04/17 04:30:33;;;;;;;8.20;3.22;;;2.40;99.90;;;;;;12367303;28;20693;-42
2021/04/17 04:36:34;;;;;;;6.88;3.20;;;2.30;99.90;;;;;;12365346;28;20570;-42
2021/04/17 04:42:36;;;;;;;10.00;3.30;;;2.20;99.90;;;;;;12369803;28;20054;-42
2021/04/17 04:48:38;;;;;;;11.43;3.33;;;1.90;99.90;;;;;;12363445;28;20124;-42
2021/04/17 04:54:40;;;;;;;6.95;3.63;;;1.80;99.90;;;;;;12357581;28;20082;-43
2021/04/17 05:00:41;;;;;;;8.73;3.90;;;2.00;99.90;;;;;;12361944;28;20089;-42
2021/04/17 05:06:43;;;;;;;8.30;4.03;;;2.20;99.90;;;;;;12356600;28;20094;-42
2021/04/17 05:12:44;;;;;;;10.82;3.95;;;2.30;99.90;;;;;;12359226;28;20096;-42
2021/04/17 05:18:45;;;;;;;8.18;3.88;;;2.60;99.90;;;;;;12360815;28;20046;-42
2021/04/17 05:24:49;;;;;;;7.03;3.70;;;2.70;99.90;;;;;;12356896;28;20732;-42
2021/04/17 05:30:50;;;;;;;7.65;3.90;;;2.80;99.90;;;;;;12355799;28;20089;-42
2021/04/17 05:36:52;;;;;;;8.80;4.55;;;3.10;99.90;;;;;;12359872;28;20739;-42
2021/04/17 05:42:53;;;;;;;9.52;4.63;;;3.40;99.90;;;;;;12363468;28;20103;-43
2021/04/17 05:48:54;;;;;;;10.63;4.70;;;4.20;99.90;;;;;;12372480;28;20120;-44
2021/04/17 05:54:55;;;;;;;10.60;4.93;;;4.80;99.90;;;;;;12362707;28;20109;-43
2021/04/17 06:00:57;;;;;;;9.27;4.85;;;4.90;99.90;;;;;;12364947;28;20103;-42
2021/04/17 06:06:58;;;;;;;12.20;4.70;;;4.70;99.90;;;;;;12369395;28;20356;-43
2021/04/17 06:13:00;;;;;;;11.70;5.38;;;4.70;99.90;;;;;;12367561;28;20482;-42
2021/04/17 06:19:01;;;;;;;12.43;5.20;;;5.00;99.90;;;;;;12366421;28;20141;-42
2021/04/17 06:25:05;;;;;;;12.15;4.93;;;5.00;99.90;;;;;;12369366;28;20089;-42
2021/04/17 06:31:06;;;;;;;10.40;4.43;;;5.00;99.90;;;;;;12369650;28;20096;-42
2021/04/17 06:37:08;;;;;;;12.95;4.80;;;5.10;99.90;;;;;;12371357;28;20463;-42
2021/04/17 06:43:10;;;;;;;10.73;5.25;;;5.20;99.90;;;;;;12369222;28;20043;-42
2021/04/17 06:49:11;;;;;;;14.20;5.68;;;5.20;99.90;;;;;;12369113;28;20133;-42
2021/04/17 06:55:13;;;;;;;14.20;5.30;;;5.30;99.90;;;;;;12376143;28;20094;-42
2021/04/17 07:01:15;;;;;;;11.93;4.85;;;5.30;99.90;;;;;;12368268;28;20739;-42
2021/04/17 07:07:16;;;;;;;9.05;5.28;;;5.20;99.90;;;;;;12369683;28;20133;-42
2021/04/17 07:13:18;;;;;;;15.27;6.07;;;5.40;99.90;;;;;;12369750;28;20046;-42
2021/04/17 07:19:19;;;;;;;13.98;6.03;;;5.50;99.90;;;;;;12360822;28;20058;-42
2021/04/17 07:25:21;;;;;;;11.57;6.13;;;5.60;99.90;;;;;;12367387;28;20110;-43
2021/04/17 07:31:24;;;;;;;12.38;5.93;;;5.70;99.90;;;;;;12368161;28;21481;-42
2021/04/17 07:37:26;;;;;;;14.10;6.18;;;5.80;99.90;;;;;;12368630;28;20064;-43
2021/04/17 07:43:53;;;;;;;11.73;6.00;;;5.70;99.90;;;;;;12372112;28;20052;-43
2021/04/17 07:50:07;;;;;;;16.40;6.75;;;5.60;99.90;;;;;;12365144;28;20058;-42
2021/04/17 07:56:31;;;;;;;13.00;6.78;;;5.80;99.90;;;;;;12370529;28;20058;-44
2021/04/17 08:02:34;;;;;;;14.02;6.97;;;6.00;99.90;;;;;;12368147;28;20253;-43
2021/04/17 08:08:36;;;;;;;13.35;7.18;;;6.20;99.90;;;;;;12368625;28;20073;-42
2021/04/17 08:14:38;;;;;;;15.07;7.40;;;6.40;99.90;;;;;;12366189;28;20057;-43
2021/04/17 08:20:40;;;;;;;13.73;7.10;;;6.70;99.90;;;;;;12364881;28;20049;-43
2021/04/17 08:26:41;;;;;;;19.20;7.70;;;6.90;99.90;;;;;;12372882;28;20567;-42
2021/04/17 08:32:47;;;;;;;15.07;6.90;;;7.00;99.90;;;;;;12362723;28;20403;-43
2021/04/17 08:38:49;;;;;;;13.48;6.78;;;7.00;99.90;;;;;;12366586;28;20035;-43
2021/04/17 08:44:50;;;;;;;17.58;6.82;;;7.00;99.90;;;;;;12360976;28;20055;-42
2021/04/17 08:50:52;;;;;;;15.32;5.95;;;7.10;99.90;;;;;;12364064;28;20154;-42
2021/04/17 08:56:58;;;;;;;10.80;5.50;;;7.30;99.90;;;;;;12365379;28;20042;-45
2021/04/17 09:02:59;;;;;;;10.65;4.72;;;7.40;99.90;;;;;;12366067;28;20589;-43
2021/04/17 09:09:16;;;;;;;9.73;4.18;;;7.60;99.90;;;;;;12370502;28;20066;-42
2021/04/17 09:15:18;;;;;;;8.88;3.80;;;7.60;99.90;;;;;;12368453;28;20057;-42
2021/04/17 09:21:19;;;;;;;9.35;4.20;;;7.70;99.90;;;;;;12370538;28;20088;-42
2021/04/17 09:27:27;;;;;;;7.10;3.35;;;7.80;99.90;;;;;;12376313;28;20632;-44
2021/04/17 09:33:29;;;;;;;7.82;3.95;;;8.00;99.90;;;;;;12371401;28;20470;-43
2021/04/17 09:39:32;;;;;;;11.10;4.35;;;8.00;99.90;;;;;;12374364;28;20055;-43
2021/04/17 09:45:41;;;;;;;10.70;3.50;;;7.90;99.90;;;;;;12374349;28;20621;-43
2021/04/17 09:51:42;;;;;;;14.35;4.45;;;7.90;99.90;;;;;;12376955;28;20092;-42
2021/04/17 09:57:45;;;;;;;13.57;4.22;;;8.40;99.90;;;;;;12383208;28;20486;-43
2021/04/17 10:04:02;;;;;;;13.55;4.10;;;8.40;99.90;;;;;;12379777;28;20391;-42
2021/04/17 10:10:06;;;;;;;14.18;4.05;;;8.60;99.90;;;;;;12374673;28;20099;-43
2021/04/17 10:16:09;;;;;;;8.37;3.80;;;9.00;99.90;;;;;;12377384;28;21117;-44
2021/04/17 10:22:12;;;;;;;7.45;3.55;;;9.10;99.90;;;;;;12375092;28;20563;-43
2021/04/17 10:28:13;;;;;;;8.63;3.05;;;9.10;99.90;;;;;;12374690;28;20051;-43
2021/04/17 10:40:19;;;;;;;8.38;3.10;;;9.80;99.90;;;;;;12809668;27;20589;-80
2021/04/17 10:46:21;;;;;;;7.13;3.25;;;10.10;99.90;;;;;;12719963;27;20071;-80
2021/04/17 10:52:32;;;;;;;5.97;2.75;;;10.30;99.90;;;;;;12702684;27;20047;-80
2021/04/17 10:58:35;;;;;;;7.80;3.22;;;10.30;99.90;;;;;;12715313;27;20047;-80
2021/04/17 11:04:47;;;;;;;7.77;2.90;;;10.50;99.90;;;;;;12696434;27;20511;-80
2021/04/17 11:10:48;;;;;;;10.60;3.33;;;10.60;99.90;;;;;;12703680;27;20036;-80
2021/04/17 11:16:51;;;;;;;6.45;2.65;;;10.90;99.90;;;;;;12704855;27;20039;-80
2021/04/17 11:22:53;;;;;;;7.78;2.50;;;11.20;99.90;;;;;;12702547;27;20039;-80
2021/04/17 11:28:57;;;;;;;9.48;2.75;;;11.60;99.90;;;;;;12704354;27;20067;-81
2021/04/17 11:34:58;;;;;;;7.00;2.70;;;12.10;99.90;;;;;;12687699;27;20063;-81
2021/04/17 11:41:00;;;;;;;7.18;3.22;;;12.30;99.90;;;;;;12691537;27;20138;-80
2021/04/17 11:47:01;;;;;;;6.45;2.75;;;12.50;99.90;;;;;;12679985;27;20177;-81
2021/04/17 11:53:03;;;;;;;9.10;2.53;;;12.70;99.90;;;;;;12652543;27;20051;-80
2021/04/17 11:59:04;;;;;;;5.30;2.45;;;12.90;99.90;;;;;;12656221;27;20035;-81
2021/04/17 12:05:06;;;;;;;9.00;3.17;;;13.50;99.90;;;;;;12659930;27;20187;-81
2021/04/17 12:11:08;;;;;;;7.55;2.90;;;13.10;99.90;;;;;;12652427;27;20126;-81
2021/04/17 12:17:10;;;;;;;7.00;2.70;;;12.70;99.90;;;;;;12649098;27;20066;-81
2021/04/17 12:23:13;;;;;;;7.20;2.60;;;12.40;99.90;;;;;;12646555;27;20050;-80
2021/04/17 12:29:14;;;;;;;7.10;2.30;;;12.40;99.90;;;;;;12672107;27;20070;-81
2021/04/17 12:35:16;;;;;;;7.72;2.38;;;11.80;99.90;;;;;;12648026;27;20060;-81
2021/04/17 12:41:19;;;;;;;6.45;2.53;;;11.40;99.90;;;;;;12652173;27;20128;-81
2021/04/17 12:47:20;;;;;;;5.68;2.38;;;11.70;99.90;;;;;;12642636;27;20499;-82
2021/04/17 12:53:25;;;;;;;6.07;2.10;;;12.30;99.90;;;;;;12650668;27;20043;-81
2021/04/17 12:59:26;;;;;;;6.88;2.40;;;12.60;99.90;;;;;;12667714;27;21781;-81
2021/04/17 13:05:28;;;;;;;6.07;2.88;;;12.80;99.90;;;;;;12660603;27;20130;-81
2021/04/17 13:11:29;;;;;;;7.60;2.40;;;13.00;99.90;;;;;;12664068;27;20134;-81
2021/04/17 13:17:30;;;;;;;10.93;2.50;;;13.10;99.90;;;;;;12700343;27;20043;-81
2021/04/17 13:23:32;;;;;;;4.75;2.40;;;13.00;99.90;;;;;;12695495;27;20130;-81
2021/04/17 13:29:34;;;;;;;6.75;2.25;;;13.10;99.90;;;;;;12708022;27;20066;-81
2021/04/17 13:35:36;;;;;;;5.45;2.40;;;13.20;99.90;;;;;;12691705;27;20551;-81
2021/04/17 13:41:37;;;;;;;6.45;2.53;;;12.80;99.90;;;;;;12713396;27;20041;-81
2021/04/17 13:47:39;;;;;;;5.63;2.75;;;13.10;99.90;;;;;;12692676;27;20105;-81
2021/04/17 13:53:40;;;;;;;8.88;3.38;;;13.10;99.90;;;;;;12709851;27;20054;-81
2021/04/17 13:59:42;;;;;;;5.32;2.00;;;13.20;99.90;;;;;;12691487;27;20082;-80
2021/04/17 14:05:43;;;;;;;4.93;2.50;;;13.70;99.90;;;;;;12687965;27;20092;-81
2021/04/17 14:11:45;;;;;;;6.07;2.20;;;13.60;99.90;;;;;;12711143;27;20118;-81
2021/04/17 14:17:46;;;;;;;8.38;2.63;;;13.80;99.90;;;;;;12698728;27;20039;-81
2021/04/17 14:23:50;;;;;;;4.80;2.30;;;14.40;99.90;;;;;;12694740;27;20073;-81
2021/04/17 14:29:51;;;;;;;5.17;2.93;;;14.30;99.90;;;;;;12718477;27;20047;-81
2021/04/17 14:35:52;;;;;;;6.60;2.70;;;13.60;99.90;;;;;;12683550;27;20067;-81
2021/04/17 14:41:54;;;;;;;5.32;2.25;;;13.10;99.90;;;;;;12725012;27;20088;-81
2021/04/17 14:47:55;;;;;;;4.75;2.78;;;13.00;99.90;;;;;;12765295;27;20041;-81
2021/04/17 14:53:56;;;;;;;5.43;2.63;;;13.50;99.90;;;;;;12741386;27;20040;-81
2021/04/17 14:59:58;;;;;;;7.90;2.75;;;13.70;99.90;;;;;;12729915;27;20047;-81
2021/04/17 15:05:59;;;;;;;6.00;2.58;;;13.50;99.90;;;;;;12683534;27;20040;-81
2021/04/17 15:12:00;;;;;;;6.47;2.60;;;13.80;99.90;;;;;;12683069;27;20092;-81
2021/04/17 15:18:02;;;;;;;5.93;2.50;;;13.30;99.90;;;;;;12683384;27;20084;-81
2021/04/17 15:24:04;;;;;;;4.82;2.63;;;13.30;99.90;;;;;;12687411;27;20141;-81
2021/04/17 15:30:08;;;;;;;6.10;2.97;;;13.20;99.90;;;;;;12692835;27;20579;-81
2021/04/17 15:36:11;;;;;;;5.00;2.53;;;13.20;99.90;;;;;;12698152;27;20150;-81
2021/04/17 15:45:26;;;;;;;6.68;3.50;;;12.80;99.90;;;;;;12634244;27;20487;-80
2021/04/17 15:51:28;;;;;;;8.35;2.90;;;12.50;99.90;;;;;;12629125;28;20048;-81
2021/04/17 15:57:39;;;;;;;8.02;3.10;;;12.50;99.90;;;;;;12620653;28;20049;-81
2021/04/17 16:20:51;;;;;;;7.90;3.80;;;12.70;99.90;;;;;;12590108;27;20439;-81
2021/04/17 16:26:52;;;;;;;7.78;3.35;;;12.30;99.90;;;;;;12494556;28;20475;-81
2021/04/17 16:32:55;;;;;;;7.20;3.05;;;12.30;99.90;;;;;;12487019;28;20045;-81
2021/04/17 16:38:57;;;;;;;6.22;2.80;;;12.40;99.90;;;;;;12483877;28;20041;-80
2021/04/17 16:44:59;;;;;;;9.13;3.40;;;12.20;99.90;;;;;;12435371;28;20138;-81
2021/04/17 16:51:03;;;;;;;7.20;3.13;;;12.10;99.90;;;;;;12433431;28;20065;-80
2021/04/17 16:57:04;;;;;;;6.65;3.30;;;12.20;99.90;;;;;;12444090;28;20029;-80
2021/04/17 17:03:07;;;;;;;7.18;3.00;;;12.30;99.90;;;;;;12474964;28;20058;-80
2021/04/17 17:09:09;;;;;;;9.10;3.50;;;12.50;99.90;;;;;;12477690;28;20094;-80
2021/04/17 17:15:12;;;;;;;8.93;3.67;;;12.60;99.90;;;;;;12447548;28;20086;-80
2021/04/17 17:21:13;;;;;;;6.47;3.67;;;12.80;99.90;;;;;;12421029;28;20092;-81
2021/04/17 17:27:14;;;;;;;8.80;3.67;;;13.20;99.90;;;;;;12418465;28;20054;-80
2021/04/17 17:33:16;;;;;;;7.68;3.67;;;13.50;99.90;;;;;;12391372;28;20050;-80
2021/04/17 17:39:17;;;;;;;8.40;3.95;;;13.50;99.90;;;;;;12394530;28;20464;-80
2021/04/17 17:45:19;;;;;;;9.02;3.70;;;13.50;99.90;;;;;;12386352;28;20053;-80
2021/04/17 17:51:20;;;;;;;8.43;3.97;;;13.50;99.90;;;;;;12409196;28;20090;-80
2021/04/17 17:57:23;;;;;;;7.72;3.83;;;13.30;99.90;;;;;;12404487;28;20062;-80
2021/04/17 18:03:24;;;;;;;9.02;4.05;;;12.90;99.90;;;;;;12381241;28;20137;-80
2021/04/17 18:09:26;;;;;;;7.45;4.47;;;12.20;99.90;;;;;;12394215;28;20400;-80
2021/04/17 18:15:28;;;;;;;9.60;5.50;;;11.50;99.90;;;;;;12387590;28;20829;-80
2021/04/17 18:21:29;;;;;;;10.10;4.95;;;10.80;99.90;;;;;;12394850;28;20609;-80
2021/04/17 18:27:30;;;;;;;12.63;5.00;;;10.30;99.90;;;;;;12387153;28;20169;-80
2021/04/17 18:33:31;;;;;;;10.77;5.32;;;10.00;99.90;;;;;;12386172;28;20077;-80
2021/04/17 18:39:34;;;;;;;9.20;4.57;;;9.60;99.90;;;;;;12399757;28;20051;-80
2021/04/17 18:45:36;;;;;;;8.50;4.35;;;9.40;99.90;;;;;;12381020;28;20359;-80
2021/04/17 18:51:38;;;;;;;8.48;5.03;;;9.20;99.90;;;;;;12385251;28;20594;-80
2021/04/17 18:57:40;;;;;;;9.45;4.55;;;8.90;99.90;;;;;;12386234;28;20577;-80
2021/04/17 19:03:42;;;;;;;8.07;4.32;;;8.90;99.90;;;;;;12377432;28;20592;-79
2021/04/17 19:09:44;;;;;;;9.48;4.85;;;8.70;99.90;;;;;;12376494;28;20057;-80
2021/04/17 19:15:45;;;;;;;12.27;5.63;;;8.60;99.90;;;;;;12371883;28;20046;-79
2021/04/17 19:21:47;;;;;;;10.63;5.70;;;8.20;99.90;;;;;;12375798;28;20706;-79
2021/04/17 19:27:50;;;;;;;13.30;6.30;;;8.00;99.90;;;;;;12379510;28;20050;-79
2021/04/17 19:33:51;;;;;;;13.60;5.97;;;8.00;99.90;;;;;;12379376;28;20548;-80
2021/04/17 19:39:53;;;;;;;13.32;6.55;;;7.90;99.90;;;;;;12380666;28;20128;-80
2021/04/17 19:45:54;;;;;;;14.35;6.43;;;7.80;99.90;;;;;;12383919;28;20555;-79
2021/04/17 19:51:55;;;;;;;11.80;6.18;;;7.70;99.90;;;;;;12378578;28;20114;-80
2021/04/17 19:57:57;;;;;;;11.75;6.13;;;7.60;99.90;;;;;;12386986;28;21041;-80
2021/04/17 20:03:58;;;;;;;12.70;6.38;;;7.40;99.90;;;;;;12384678;28;20077;-79
2021/04/17 20:09:59;;;;;;;11.10;5.82;;;7.40;99.90;;;;;;12383615;28;20725;-79
2021/04/17 20:16:01;;;;;;;10.52;6.93;;;7.40;99.90;;;;;;12379258;28;20184;-79
2021/04/17 20:22:02;;;;;;;14.38;6.57;;;7.30;99.90;;;;;;12378686;28;20046;-79
2021/04/17 20:28:04;;;;;;;15.80;7.40;;;7.20;99.90;;;;;;12396598;28;20129;-79
2021/04/17 20:34:05;;;;;;;14.07;7.55;;;7.20;99.90;;;;;;12396034;28;20088;-79
2021/04/17 20:40:07;;;;;;;23.75;11.70;;;7.20;99.90;;;;;;12379481;28;20054;-79
2021/04/17 20:46:08;;;;;;;11.77;7.88;;;7.40;99.90;;;;;;12397595;28;20552;-79
2021/04/17 20:52:10;;;;;;;14.35;7.95;;;7.70;99.90;;;;;;12380701;28;20049;-79
2021/04/17 20:58:11;;;;;;;12.27;7.38;;;7.80;99.90;;;;;;12384022;28;20042;-79
2021/04/17 21:04:12;;;;;;;13.18;6.65;;;7.90;99.90;;;;;;12381715;28;20050;-79
2021/04/17 21:10:14;;;;;;;15.63;7.55;;;7.80;99.90;;;;;;12388269;28;20050;-79
2021/04/17 21:16:15;;;;;;;13.43;7.00;;;7.90;99.90;;;;;;12391455;28;20388;-79
2021/04/17 21:22:17;;;;;;;12.98;6.47;;;8.00;99.90;;;;;;12390162;28;20088;-79
2021/04/17 21:28:18;;;;;;;11.18;6.13;;;8.10;99.90;;;;;;12396683;28;20049;-80
2021/04/17 21:34:19;;;;;;;12.23;6.57;;;8.10;99.90;;;;;;12388665;28;20510;-79
2021/04/17 21:40:21;;;;;;;12.98;6.93;;;8.00;99.90;;;;;;12387442;28;20502;-79
2021/04/17 21:46:23;;;;;;;12.95;7.10;;;7.80;99.90;;;;;;12388490;28;20141;-79
2021/04/17 21:52:24;;;;;;;10.75;6.70;;;7.80;99.90;;;;;;12389328;28;20133;-79
2021/04/17 21:58:26;;;;;;;15.93;6.65;;;7.80;99.90;;;;;;12391789;28;20046;-80
2021/04/17 22:04:27;;;;;;;11.02;6.13;;;7.80;99.90;;;;;;12383820;28;20057;-80
2021/04/17 22:10:28;;;;;;;10.05;6.30;;;7.80;99.90;;;;;;12386243;28;20081;-79
2021/04/17 22:16:30;;;;;;;12.43;6.53;;;7.70;99.90;;;;;;12389386;28;20298;-79
2021/04/17 22:22:31;;;;;;;10.98;6.20;;;7.70;99.90;;;;;;12388687;28;20100;-79
2021/04/17 22:28:32;;;;;;;12.65;6.55;;;7.60;99.90;;;;;;12386480;28;20165;-79
2021/04/17 22:34:34;;;;;;;13.70;6.55;;;7.60;99.90;;;;;;12393307;28;20081;-80
2021/04/17 22:40:35;;;;;;;11.35;6.32;;;7.60;99.90;;;;;;12379088;28;20465;-79
2021/04/17 22:46:36;;;;;;;12.65;6.00;;;7.60;99.90;;;;;;12382737;28;20041;-79
2021/04/17 22:52:38;;;;;;;12.10;6.53;;;7.50;99.90;;;;;;12396216;28;20518;-80
2021/04/17 22:58:39;;;;;;;9.65;5.80;;;7.50;99.90;;;;;;12372688;28;20107;-79
2021/04/17 23:04:41;;;;;;;13.73;6.45;;;7.60;99.90;;;;;;12384805;28;20120;-80
2021/04/17 23:10:42;;;;;;;11.15;6.05;;;7.40;99.90;;;;;;12386253;28;20038;-79
2021/04/17 23:16:44;;;;;;;9.93;5.90;;;7.40;99.90;;;;;;12399595;28;20111;-80
2021/04/17 23:22:45;;;;;;;10.30;6.25;;;7.10;99.90;;;;;;12378738;28;20142;-79
2021/04/17 23:28:46;;;;;;;10.55;6.70;;;7.00;99.90;;;;;;12396459;28;20050;-79
2021/04/17 23:34:48;;;;;;;11.32;6.07;;;6.80;99.90;;;;;;12379428;28;20070;-79
2021/04/17 23:40:50;;;;;;;13.10;5.90;;;6.70;99.90;;;;;;12384567;28;20137;-79
2021/04/17 23:46:51;;;;;;;11.73;6.00;;;6.70;99.90;;;;;;12377404;28;20251;-79
2021/04/17 23:52:52;;;;;;;15.30;7.35;;;6.70;99.90;;;;;;12385355;28;20042;-79
2021/04/17 23:58:54;;;;;;;13.13;7.57;;;6.50;99.90;;;;;;12400113;28;20046;-79
